Terminal Aerodrome Forecast
Issued by NWS

Home | Current Version | Previous Version | Text Only | Print | Product List | Glossary On
Versions: 1 2 3 4 5 6 7 8 9 10 11 12 13 14 15 16
000
FTUS43 KDVN 170520
TAFBRL
TAF
KBRL 170520Z 1706/1806 20012KT P6SM FEW070 FEW080
     FM171500 26012G20KT P6SM SCT025
     FM172100 28010G16KT P6SM SKC
     FM180000 29008KT P6SM SKC=

USA.gov is the U.S. government's official web portal to all federal, state and local government web resources and services.